sensor_id;sensor_type;location;lat;lon;timestamp;P1;durP1;ratioP1;P2;durP2;ratioP2
48574;SDS011;34352;51.084;3.712;2022-07-29T00:02:11;10.35;;;5.20;;
48574;SDS011;34352;51.084;3.712;2022-07-29T00:04:37;10.43;;;5.30;;
48574;SDS011;34352;51.084;3.712;2022-07-29T00:07:03;14.40;;;5.32;;
48574;SDS011;34352;51.084;3.712;2022-07-29T00:09:29;14.02;;;5.78;;
48574;SDS011;34352;51.084;3.712;2022-07-29T00:11:56;13.32;;;5.70;;
48574;SDS011;34352;51.084;3.712;2022-07-29T00:14:25;15.85;;;6.15;;
48574;SDS011;34352;51.084;3.712;2022-07-29T00:16:51;11.32;;;5.28;;
48574;SDS011;34352;51.084;3.712;2022-07-29T00:19:16;11.27;;;5.30;;
48574;SDS011;34352;51.084;3.712;2022-07-29T00:21:42;12.38;;;5.05;;
48574;SDS011;34352;51.084;3.712;2022-07-29T00:24:08;13.73;;;5.53;;
48574;SDS011;34352;51.084;3.712;2022-07-29T00:26:34;9.80;;;5.10;;
48574;SDS011;34352;51.084;3.712;2022-07-29T00:29:00;9.98;;;4.80;;
48574;SDS011;34352;51.084;3.712;2022-07-29T00:31:28;9.35;;;5.45;;
48574;SDS011;34352;51.084;3.712;2022-07-29T00:33:53;10.63;;;5.30;;
48574;SDS011;34352;51.084;3.712;2022-07-29T00:36:19;9.75;;;5.40;;
48574;SDS011;34352;51.084;3.712;2022-07-29T00:38:48;13.48;;;5.75;;
48574;SDS011;34352;51.084;3.712;2022-07-29T00:41:14;15.23;;;5.63;;
48574;SDS011;34352;51.084;3.712;2022-07-29T00:43:41;10.60;;;4.72;;
48574;SDS011;34352;51.084;3.712;2022-07-29T00:46:07;11.00;;;4.90;;
48574;SDS011;34352;51.084;3.712;2022-07-29T00:48:33;9.80;;;4.88;;
48574;SDS011;34352;51.084;3.712;2022-07-29T00:50:59;10.75;;;5.25;;
48574;SDS011;34352;51.084;3.712;2022-07-29T00:53:27;13.57;;;5.07;;
48574;SDS011;34352;51.084;3.712;2022-07-29T00:55:56;11.57;;;5.13;;
48574;SDS011;34352;51.084;3.712;2022-07-29T00:58:23;10.30;;;5.32;;
48574;SDS011;34352;51.084;3.712;2022-07-29T01:00:51;14.98;;;5.20;;
48574;SDS011;34352;51.084;3.712;2022-07-29T01:03:17;8.80;;;4.55;;
48574;SDS011;34352;51.084;3.712;2022-07-29T01:05:43;11.30;;;4.03;;
48574;SDS011;34352;51.084;3.712;2022-07-29T01:08:11;10.20;;;4.60;;
48574;SDS011;34352;51.084;3.712;2022-07-29T01:10:38;5.47;;;3.35;;
48574;SDS011;34352;51.084;3.712;2022-07-29T01:13:05;7.93;;;3.35;;
48574;SDS011;34352;51.084;3.712;2022-07-29T01:15:33;7.03;;;3.28;;
48574;SDS011;34352;51.084;3.712;2022-07-29T01:28:51;8.88;;;4.50;;
48574;SDS011;34352;51.084;3.712;2022-07-29T01:31:31;11.82;;;4.57;;
48574;SDS011;34352;51.084;3.712;2022-07-29T01:34:05;8.27;;;4.45;;
48574;SDS011;34352;51.084;3.712;2022-07-29T01:36:35;9.32;;;4.65;;
48574;SDS011;34352;51.084;3.712;2022-07-29T01:39:06;10.73;;;4.78;;
48574;SDS011;34352;51.084;3.712;2022-07-29T01:41:32;8.48;;;4.15;;
48574;SDS011;34352;51.084;3.712;2022-07-29T01:44:02;10.70;;;4.85;;
48574;SDS011;34352;51.084;3.712;2022-07-29T01:46:41;7.78;;;4.70;;
48574;SDS011;34352;51.084;3.712;2022-07-29T01:49:15;6.90;;;4.20;;
48574;SDS011;34352;51.084;3.712;2022-07-29T01:54:25;8.35;;;5.10;;
48574;SDS011;34352;51.084;3.712;2022-07-29T01:56:55;8.95;;;4.43;;
48574;SDS011;34352;51.084;3.712;2022-07-29T01:59:23;9.02;;;4.32;;
48574;SDS011;34352;51.084;3.712;2022-07-29T02:01:52;8.40;;;4.85;;
48574;SDS011;34352;51.084;3.712;2022-07-29T02:04:20;11.63;;;4.95;;
48574;SDS011;34352;51.084;3.712;2022-07-29T02:06:48;11.80;;;5.05;;
48574;SDS011;34352;51.084;3.712;2022-07-29T02:09:16;8.98;;;5.07;;
48574;SDS011;34352;51.084;3.712;2022-07-29T02:11:46;10.60;;;4.93;;
48574;SDS011;34352;51.084;3.712;2022-07-29T02:14:14;9.27;;;4.70;;
48574;SDS011;34352;51.084;3.712;2022-07-29T02:16:42;9.10;;;4.50;;
48574;SDS011;34352;51.084;3.712;2022-07-29T02:19:10;8.73;;;4.40;;
48574;SDS011;34352;51.084;3.712;2022-07-29T02:21:37;7.70;;;4.80;;
48574;SDS011;34352;51.084;3.712;2022-07-29T02:24:05;6.53;;;4.55;;
48574;SDS011;34352;51.084;3.712;2022-07-29T02:26:32;9.23;;;4.55;;
48574;SDS011;34352;51.084;3.712;2022-07-29T02:28:59;7.95;;;4.80;;
48574;SDS011;34352;51.084;3.712;2022-07-29T02:31:26;9.52;;;4.57;;
48574;SDS011;34352;51.084;3.712;2022-07-29T02:33:57;8.25;;;4.13;;
48574;SDS011;34352;51.084;3.712;2022-07-29T02:36:23;9.80;;;4.40;;
48574;SDS011;34352;51.084;3.712;2022-07-29T02:38:51;7.22;;;4.38;;
48574;SDS011;34352;51.084;3.712;2022-07-29T02:42:03;5.53;;;3.97;;
48574;SDS011;34352;51.084;3.712;2022-07-29T02:44:10;8.93;;;4.28;;
48574;SDS011;34352;51.084;3.712;2022-07-29T02:46:40;8.35;;;4.50;;
48574;SDS011;34352;51.084;3.712;2022-07-29T02:49:23;7.70;;;4.68;;
48574;SDS011;34352;51.084;3.712;2022-07-29T02:52:03;10.77;;;4.68;;
48574;SDS011;34352;51.084;3.712;2022-07-29T02:54:34;9.32;;;5.00;;
48574;SDS011;34352;51.084;3.712;2022-07-29T03:00:14;15.38;;;5.47;;
48574;SDS011;34352;51.084;3.712;2022-07-29T03:02:44;9.38;;;5.18;;
48574;SDS011;34352;51.084;3.712;2022-07-29T03:05:14;8.85;;;4.53;;
48574;SDS011;34352;51.084;3.712;2022-07-29T03:07:43;6.57;;;4.40;;
48574;SDS011;34352;51.084;3.712;2022-07-29T03:12:40;7.30;;;4.25;;
48574;SDS011;34352;51.084;3.712;2022-07-29T03:15:06;6.60;;;4.95;;
48574;SDS011;34352;51.084;3.712;2022-07-29T03:17:33;10.48;;;4.18;;
48574;SDS011;34352;51.084;3.712;2022-07-29T03:19:59;8.30;;;4.53;;
48574;SDS011;34352;51.084;3.712;2022-07-29T03:22:25;9.63;;;4.20;;
48574;SDS011;34352;51.084;3.712;2022-07-29T03:24:51;8.60;;;4.85;;
48574;SDS011;34352;51.084;3.712;2022-07-29T03:27:17;9.45;;;4.68;;
48574;SDS011;34352;51.084;3.712;2022-07-29T03:29:43;8.00;;;4.60;;
48574;SDS011;34352;51.084;3.712;2022-07-29T03:32:08;8.90;;;4.50;;
48574;SDS011;34352;51.084;3.712;2022-07-29T03:34:34;7.13;;;5.10;;
48574;SDS011;34352;51.084;3.712;2022-07-29T03:37:01;6.70;;;4.60;;
48574;SDS011;34352;51.084;3.712;2022-07-29T03:39:27;7.90;;;5.03;;
48574;SDS011;34352;51.084;3.712;2022-07-29T03:41:58;7.05;;;4.78;;
48574;SDS011;34352;51.084;3.712;2022-07-29T03:44:26;8.23;;;4.50;;
48574;SDS011;34352;51.084;3.712;2022-07-29T03:46:53;8.27;;;4.57;;
48574;SDS011;34352;51.084;3.712;2022-07-29T03:49:22;8.50;;;5.10;;
48574;SDS011;34352;51.084;3.712;2022-07-29T03:51:49;5.82;;;4.82;;
48574;SDS011;34352;51.084;3.712;2022-07-29T03:54:15;7.78;;;4.65;;
48574;SDS011;34352;51.084;3.712;2022-07-29T03:56:42;7.82;;;5.13;;
48574;SDS011;34352;51.084;3.712;2022-07-29T03:59:11;9.27;;;4.57;;
48574;SDS011;34352;51.084;3.712;2022-07-29T04:01:38;7.85;;;4.60;;
48574;SDS011;34352;51.084;3.712;2022-07-29T04:04:05;6.82;;;4.30;;
48574;SDS011;34352;51.084;3.712;2022-07-29T04:06:38;6.93;;;4.53;;
48574;SDS011;34352;51.084;3.712;2022-07-29T04:09:04;8.95;;;4.97;;
48574;SDS011;34352;51.084;3.712;2022-07-29T04:11:30;6.22;;;4.95;;
48574;SDS011;34352;51.084;3.712;2022-07-29T04:13:56;10.00;;;5.03;;
48574;SDS011;34352;51.084;3.712;2022-07-29T04:16:21;6.97;;;5.03;;
48574;SDS011;34352;51.084;3.712;2022-07-29T04:18:47;8.48;;;4.78;;
48574;SDS011;34352;51.084;3.712;2022-07-29T04:21:12;7.57;;;4.68;;
48574;SDS011;34352;51.084;3.712;2022-07-29T04:23:38;7.53;;;4.53;;
48574;SDS011;34352;51.084;3.712;2022-07-29T04:26:04;8.98;;;5.47;;
48574;SDS011;34352;51.084;3.712;2022-07-29T04:28:29;7.10;;;5.00;;
48574;SDS011;34352;51.084;3.712;2022-07-29T04:30:55;15.35;;;5.53;;
48574;SDS011;34352;51.084;3.712;2022-07-29T04:33:20;8.05;;;4.93;;
48574;SDS011;34352;51.084;3.712;2022-07-29T04:35:46;8.75;;;4.82;;
48574;SDS011;34352;51.084;3.712;2022-07-29T04:38:12;9.38;;;5.18;;
48574;SDS011;34352;51.084;3.712;2022-07-29T04:40:37;11.20;;;5.70;;
48574;SDS011;34352;51.084;3.712;2022-07-29T04:43:03;14.75;;;5.45;;
48574;SDS011;34352;51.084;3.712;2022-07-29T04:45:29;7.60;;;5.10;;
48574;SDS011;34352;51.084;3.712;2022-07-29T04:47:54;9.00;;;5.10;;
48574;SDS011;34352;51.084;3.712;2022-07-29T04:50:20;9.10;;;4.93;;
48574;SDS011;34352;51.084;3.712;2022-07-29T04:52:47;7.80;;;5.07;;
48574;SDS011;34352;51.084;3.712;2022-07-29T04:55:13;9.70;;;5.53;;
48574;SDS011;34352;51.084;3.712;2022-07-29T04:57:39;10.38;;;5.03;;
48574;SDS011;34352;51.084;3.712;2022-07-29T05:00:06;9.77;;;5.10;;
48574;SDS011;34352;51.084;3.712;2022-07-29T05:02:32;8.60;;;5.35;;
48574;SDS011;34352;51.084;3.712;2022-07-29T05:04:57;9.15;;;5.05;;
48574;SDS011;34352;51.084;3.712;2022-07-29T05:07:23;6.13;;;4.80;;
48574;SDS011;34352;51.084;3.712;2022-07-29T05:09:49;8.57;;;4.90;;
48574;SDS011;34352;51.084;3.712;2022-07-29T05:12:14;7.40;;;4.78;;
48574;SDS011;34352;51.084;3.712;2022-07-29T05:14:40;6.72;;;4.80;;
48574;SDS011;34352;51.084;3.712;2022-07-29T05:17:06;6.18;;;4.22;;
48574;SDS011;34352;51.084;3.712;2022-07-29T05:19:31;9.55;;;4.00;;
48574;SDS011;34352;51.084;3.712;2022-07-29T05:21:57;9.38;;;4.35;;
48574;SDS011;34352;51.084;3.712;2022-07-29T05:24:22;5.22;;;4.07;;
48574;SDS011;34352;51.084;3.712;2022-07-29T05:26:48;5.93;;;4.30;;
48574;SDS011;34352;51.084;3.712;2022-07-29T05:29:14;8.55;;;4.00;;
48574;SDS011;34352;51.084;3.712;2022-07-29T05:31:39;5.60;;;3.53;;
48574;SDS011;34352;51.084;3.712;2022-07-29T05:34:05;6.50;;;3.92;;
48574;SDS011;34352;51.084;3.712;2022-07-29T05:36:31;4.78;;;3.85;;
48574;SDS011;34352;51.084;3.712;2022-07-29T05:38:56;8.13;;;4.00;;
48574;SDS011;34352;51.084;3.712;2022-07-29T05:41:22;6.30;;;3.78;;
48574;SDS011;34352;51.084;3.712;2022-07-29T05:43:48;4.28;;;3.83;;
48574;SDS011;34352;51.084;3.712;2022-07-29T05:46:13;7.97;;;3.67;;
48574;SDS011;34352;51.084;3.712;2022-07-29T05:48:40;5.57;;;3.50;;
48574;SDS011;34352;51.084;3.712;2022-07-29T05:51:05;7.30;;;4.00;;
48574;SDS011;34352;51.084;3.712;2022-07-29T05:53:31;7.53;;;4.45;;
48574;SDS011;34352;51.084;3.712;2022-07-29T05:55:57;7.43;;;4.07;;
48574;SDS011;34352;51.084;3.712;2022-07-29T05:58:24;5.07;;;3.97;;
48574;SDS011;34352;51.084;3.712;2022-07-29T06:00:49;5.80;;;4.18;;
48574;SDS011;34352;51.084;3.712;2022-07-29T06:03:15;7.22;;;3.40;;
48574;SDS011;34352;51.084;3.712;2022-07-29T06:05:40;6.47;;;4.13;;
48574;SDS011;34352;51.084;3.712;2022-07-29T06:08:06;9.75;;;3.97;;
48574;SDS011;34352;51.084;3.712;2022-07-29T06:10:32;4.38;;;3.60;;
48574;SDS011;34352;51.084;3.712;2022-07-29T06:12:59;7.32;;;4.13;;
48574;SDS011;34352;51.084;3.712;2022-07-29T06:15:25;6.95;;;4.00;;
48574;SDS011;34352;51.084;3.712;2022-07-29T06:17:51;5.18;;;3.92;;
48574;SDS011;34352;51.084;3.712;2022-07-29T06:20:18;7.43;;;4.22;;
48574;SDS011;34352;51.084;3.712;2022-07-29T06:22:44;8.23;;;4.47;;
48574;SDS011;34352;51.084;3.712;2022-07-29T06:25:10;8.15;;;4.40;;
48574;SDS011;34352;51.084;3.712;2022-07-29T06:27:36;6.63;;;4.38;;
48574;SDS011;34352;51.084;3.712;2022-07-29T06:30:02;7.50;;;4.15;;
48574;SDS011;34352;51.084;3.712;2022-07-29T06:32:31;7.65;;;4.70;;
48574;SDS011;34352;51.084;3.712;2022-07-29T06:34:57;12.35;;;5.93;;
48574;SDS011;34352;51.084;3.712;2022-07-29T06:37:23;10.07;;;5.60;;
48574;SDS011;34352;51.084;3.712;2022-07-29T06:39:48;12.68;;;7.22;;
48574;SDS011;34352;51.084;3.712;2022-07-29T06:42:34;10.75;;;6.53;;
48574;SDS011;34352;51.084;3.712;2022-07-29T06:45:00;9.90;;;7.60;;
48574;SDS011;34352;51.084;3.712;2022-07-29T06:47:25;15.93;;;9.93;;
48574;SDS011;34352;51.084;3.712;2022-07-29T06:49:51;15.35;;;9.90;;
48574;SDS011;34352;51.084;3.712;2022-07-29T06:52:16;14.57;;;9.25;;
48574;SDS011;34352;51.084;3.712;2022-07-29T06:54:42;11.75;;;9.63;;
48574;SDS011;34352;51.084;3.712;2022-07-29T06:57:14;14.13;;;11.00;;
48574;SDS011;34352;51.084;3.712;2022-07-29T06:59:39;19.20;;;11.00;;
48574;SDS011;34352;51.084;3.712;2022-07-29T07:02:05;17.33;;;9.45;;
48574;SDS011;34352;51.084;3.712;2022-07-29T07:04:32;21.45;;;9.57;;
48574;SDS011;34352;51.084;3.712;2022-07-29T07:06:58;22.15;;;14.57;;
48574;SDS011;34352;51.084;3.712;2022-07-29T07:09:24;23.90;;;14.43;;
48574;SDS011;34352;51.084;3.712;2022-07-29T07:11:50;29.27;;;14.90;;
48574;SDS011;34352;51.084;3.712;2022-07-29T07:14:16;28.20;;;14.10;;
48574;SDS011;34352;51.084;3.712;2022-07-29T07:16:41;16.05;;;10.02;;
48574;SDS011;34352;51.084;3.712;2022-07-29T07:19:07;10.88;;;9.10;;
48574;SDS011;34352;51.084;3.712;2022-07-29T07:21:33;15.43;;;9.27;;
48574;SDS011;34352;51.084;3.712;2022-07-29T07:23:59;16.20;;;10.25;;
48574;SDS011;34352;51.084;3.712;2022-07-29T07:26:25;18.27;;;10.90;;
48574;SDS011;34352;51.084;3.712;2022-07-29T07:28:52;18.23;;;10.35;;
48574;SDS011;34352;51.084;3.712;2022-07-29T07:31:18;12.95;;;9.18;;
48574;SDS011;34352;51.084;3.712;2022-07-29T07:33:43;13.10;;;8.68;;
48574;SDS011;34352;51.084;3.712;2022-07-29T07:36:09;13.05;;;8.23;;
48574;SDS011;34352;51.084;3.712;2022-07-29T07:38:35;16.45;;;7.97;;
48574;SDS011;34352;51.084;3.712;2022-07-29T07:41:01;12.57;;;7.10;;
48574;SDS011;34352;51.084;3.712;2022-07-29T07:43:28;14.48;;;7.32;;
48574;SDS011;34352;51.084;3.712;2022-07-29T07:45:53;18.30;;;8.10;;
48574;SDS011;34352;51.084;3.712;2022-07-29T07:48:19;16.02;;;8.05;;
48574;SDS011;34352;51.084;3.712;2022-07-29T07:50:45;14.63;;;8.13;;
48574;SDS011;34352;51.084;3.712;2022-07-29T07:53:10;13.77;;;8.20;;
48574;SDS011;34352;51.084;3.712;2022-07-29T07:55:43;12.38;;;7.88;;
48574;SDS011;34352;51.084;3.712;2022-07-29T07:58:09;15.18;;;7.78;;
48574;SDS011;34352;51.084;3.712;2022-07-29T08:00:35;16.05;;;7.55;;
48574;SDS011;34352;51.084;3.712;2022-07-29T08:03:01;12.55;;;6.05;;
48574;SDS011;34352;51.084;3.712;2022-07-29T08:05:27;12.18;;;5.47;;
48574;SDS011;34352;51.084;3.712;2022-07-29T08:07:53;10.77;;;6.28;;
48574;SDS011;34352;51.084;3.712;2022-07-29T08:10:19;10.02;;;6.10;;
48574;SDS011;34352;51.084;3.712;2022-07-29T08:13:04;9.85;;;5.70;;
48574;SDS011;34352;51.084;3.712;2022-07-29T08:15:30;9.35;;;4.80;;
48574;SDS011;34352;51.084;3.712;2022-07-29T08:17:56;8.52;;;5.88;;
48574;SDS011;34352;51.084;3.712;2022-07-29T08:20:22;9.60;;;5.70;;
48574;SDS011;34352;51.084;3.712;2022-07-29T08:22:48;5.90;;;5.30;;
48574;SDS011;34352;51.084;3.712;2022-07-29T08:25:13;10.70;;;6.03;;
48574;SDS011;34352;51.084;3.712;2022-07-29T08:27:40;11.98;;;6.20;;
48574;SDS011;34352;51.084;3.712;2022-07-29T08:30:06;7.47;;;5.78;;
48574;SDS011;34352;51.084;3.712;2022-07-29T08:32:32;11.13;;;6.10;;
48574;SDS011;34352;51.084;3.712;2022-07-29T08:34:58;6.82;;;5.47;;
48574;SDS011;34352;51.084;3.712;2022-07-29T08:37:25;8.68;;;5.00;;
48574;SDS011;34352;51.084;3.712;2022-07-29T08:39:51;6.55;;;4.70;;
48574;SDS011;34352;51.084;3.712;2022-07-29T08:42:17;6.43;;;4.60;;
48574;SDS011;34352;51.084;3.712;2022-07-29T08:44:43;6.13;;;5.15;;
48574;SDS011;34352;51.084;3.712;2022-07-29T08:47:10;7.75;;;4.38;;
48574;SDS011;34352;51.084;3.712;2022-07-29T08:49:39;5.15;;;4.55;;
48574;SDS011;34352;51.084;3.712;2022-07-29T08:52:05;7.60;;;3.60;;
48574;SDS011;34352;51.084;3.712;2022-07-29T08:54:31;4.07;;;3.67;;
48574;SDS011;34352;51.084;3.712;2022-07-29T08:56:57;7.55;;;3.95;;
48574;SDS011;34352;51.084;3.712;2022-07-29T08:59:25;6.18;;;3.40;;
48574;SDS011;34352;51.084;3.712;2022-07-29T09:01:53;6.18;;;4.18;;
48574;SDS011;34352;51.084;3.712;2022-07-29T09:04:20;7.22;;;3.72;;
48574;SDS011;34352;51.084;3.712;2022-07-29T09:06:47;8.30;;;4.40;;
48574;SDS011;34352;51.084;3.712;2022-07-29T09:09:16;5.65;;;4.80;;
48574;SDS011;34352;51.084;3.712;2022-07-29T09:11:42;6.28;;;4.85;;
48574;SDS011;34352;51.084;3.712;2022-07-29T09:14:08;9.15;;;4.70;;
48574;SDS011;34352;51.084;3.712;2022-07-29T09:21:52;6.10;;;4.43;;
48574;SDS011;34352;51.084;3.712;2022-07-29T09:24:28;5.75;;;4.47;;
48574;SDS011;34352;51.084;3.712;2022-07-29T09:27:39;9.93;;;3.65;;
48574;SDS011;34352;51.084;3.712;2022-07-29T09:30:03;7.22;;;3.47;;
48574;SDS011;34352;51.084;3.712;2022-07-29T09:32:31;5.47;;;3.42;;
48574;SDS011;34352;51.084;3.712;2022-07-29T09:35:17;9.27;;;4.28;;
48574;SDS011;34352;51.084;3.712;2022-07-29T09:37:44;6.82;;;3.65;;
48574;SDS011;34352;51.084;3.712;2022-07-29T09:40:14;5.75;;;3.97;;
48574;SDS011;34352;51.084;3.712;2022-07-29T09:45:08;6.80;;;4.15;;
48574;SDS011;34352;51.084;3.712;2022-07-29T09:47:40;6.03;;;3.83;;
48574;SDS011;34352;51.084;3.712;2022-07-29T09:50:07;4.43;;;3.67;;
48574;SDS011;34352;51.084;3.712;2022-07-29T09:52:41;6.28;;;3.92;;
48574;SDS011;34352;51.084;3.712;2022-07-29T09:55:11;7.50;;;3.80;;
48574;SDS011;34352;51.084;3.712;2022-07-29T09:57:37;6.47;;;3.38;;
48574;SDS011;34352;51.084;3.712;2022-07-29T10:00:05;3.83;;;3.22;;
48574;SDS011;34352;51.084;3.712;2022-07-29T10:02:32;4.30;;;2.83;;
48574;SDS011;34352;51.084;3.712;2022-07-29T10:05:00;8.48;;;3.10;;
48574;SDS011;34352;51.084;3.712;2022-07-29T10:07:27;3.97;;;2.53;;
48574;SDS011;34352;51.084;3.712;2022-07-29T10:10:21;5.18;;;2.88;;
48574;SDS011;34352;51.084;3.712;2022-07-29T10:15:21;4.25;;;2.00;;
48574;SDS011;34352;51.084;3.712;2022-07-29T10:17:49;7.82;;;2.30;;
48574;SDS011;34352;51.084;3.712;2022-07-29T10:20:18;7.22;;;2.20;;
48574;SDS011;34352;51.084;3.712;2022-07-29T10:22:44;5.35;;;2.60;;
48574;SDS011;34352;51.084;3.712;2022-07-29T10:25:12;8.10;;;2.65;;
48574;SDS011;34352;51.084;3.712;2022-07-29T10:27:39;6.50;;;2.40;;
48574;SDS011;34352;51.084;3.712;2022-07-29T10:30:05;7.53;;;2.65;;
48574;SDS011;34352;51.084;3.712;2022-07-29T10:32:51;3.65;;;2.10;;
48574;SDS011;34352;51.084;3.712;2022-07-29T10:35:31;5.65;;;2.40;;
48574;SDS011;34352;51.084;3.712;2022-07-29T10:43:59;7.55;;;2.55;;
48574;SDS011;34352;51.084;3.712;2022-07-29T10:46:37;5.28;;;2.50;;
48574;SDS011;34352;51.084;3.712;2022-07-29T10:49:04;6.57;;;3.22;;
48574;SDS011;34352;51.084;3.712;2022-07-29T10:54:17;5.82;;;2.80;;
48574;SDS011;34352;51.084;3.712;2022-07-29T10:56:43;6.47;;;2.40;;
48574;SDS011;34352;51.084;3.712;2022-07-29T11:01:49;4.03;;;2.30;;
48574;SDS011;34352;51.084;3.712;2022-07-29T11:04:16;7.25;;;2.40;;
48574;SDS011;34352;51.084;3.712;2022-07-29T11:07:10;3.50;;;2.40;;
48574;SDS011;34352;51.084;3.712;2022-07-29T11:09:40;3.65;;;2.40;;
48574;SDS011;34352;51.084;3.712;2022-07-29T11:15:07;4.78;;;2.00;;
48574;SDS011;34352;51.084;3.712;2022-07-29T11:20:36;8.45;;;2.63;;
48574;SDS011;34352;51.084;3.712;2022-07-29T11:23:22;4.03;;;2.75;;
48574;SDS011;34352;51.084;3.712;2022-07-29T11:31:37;4.82;;;3.20;;
48574;SDS011;34352;51.084;3.712;2022-07-29T11:39:45;7.45;;;2.60;;
48574;SDS011;34352;51.084;3.712;2022-07-29T11:44:57;5.85;;;2.70;;
48574;SDS011;34352;51.084;3.712;2022-07-29T11:47:28;4.45;;;2.70;;
48574;SDS011;34352;51.084;3.712;2022-07-29T11:49:57;3.38;;;2.45;;
48574;SDS011;34352;51.084;3.712;2022-07-29T11:52:32;6.20;;;2.60;;
48574;SDS011;34352;51.084;3.712;2022-07-29T11:54:59;4.72;;;2.72;;
48574;SDS011;34352;51.084;3.712;2022-07-29T11:57:28;5.15;;;2.92;;
48574;SDS011;34352;51.084;3.712;2022-07-29T11:59:55;5.18;;;2.60;;
48574;SDS011;34352;51.084;3.712;2022-07-29T12:02:22;4.30;;;2.33;;
48574;SDS011;34352;51.084;3.712;2022-07-29T12:04:50;7.55;;;2.70;;
48574;SDS011;34352;51.084;3.712;2022-07-29T12:07:17;4.53;;;2.15;;
48574;SDS011;34352;51.084;3.712;2022-07-29T12:09:50;5.57;;;2.40;;
48574;SDS011;34352;51.084;3.712;2022-07-29T12:12:17;4.75;;;2.50;;
48574;SDS011;34352;51.084;3.712;2022-07-29T12:14:42;7.32;;;2.80;;
48574;SDS011;34352;51.084;3.712;2022-07-29T12:17:30;3.83;;;2.50;;
48574;SDS011;34352;51.084;3.712;2022-07-29T12:20:00;6.30;;;2.40;;
48574;SDS011;34352;51.084;3.712;2022-07-29T12:22:29;4.32;;;2.40;;
48574;SDS011;34352;51.084;3.712;2022-07-29T12:25:01;7.22;;;2.50;;
48574;SDS011;34352;51.084;3.712;2022-07-29T12:27:46;5.55;;;2.60;;
48574;SDS011;34352;51.084;3.712;2022-07-29T12:30:15;3.05;;;2.40;;
48574;SDS011;34352;51.084;3.712;2022-07-29T12:32:43;5.18;;;2.20;;
48574;SDS011;34352;51.084;3.712;2022-07-29T12:35:12;3.47;;;2.10;;
48574;SDS011;34352;51.084;3.712;2022-07-29T12:37:47;4.32;;;2.30;;
48574;SDS011;34352;51.084;3.712;2022-07-29T12:40:16;6.55;;;2.63;;
48574;SDS011;34352;51.084;3.712;2022-07-29T12:45:36;6.80;;;2.90;;
48574;SDS011;34352;51.084;3.712;2022-07-29T12:48:03;7.25;;;3.00;;
48574;SDS011;34352;51.084;3.712;2022-07-29T12:50:29;6.60;;;2.50;;
48574;SDS011;34352;51.084;3.712;2022-07-29T12:53:07;6.63;;;2.72;;
48574;SDS011;34352;51.084;3.712;2022-07-29T12:55:45;4.15;;;3.28;;
48574;SDS011;34352;51.084;3.712;2022-07-29T12:58:37;7.88;;;3.28;;
48574;SDS011;34352;51.084;3.712;2022-07-29T13:01:05;4.60;;;3.00;;
48574;SDS011;34352;51.084;3.712;2022-07-29T13:03:43;5.70;;;3.30;;
48574;SDS011;34352;51.084;3.712;2022-07-29T13:09:11;10.70;;;3.60;;
48574;SDS011;34352;51.084;3.712;2022-07-29T13:11:43;4.25;;;3.28;;
48574;SDS011;34352;51.084;3.712;2022-07-29T13:14:29;7.00;;;3.40;;
48574;SDS011;34352;51.084;3.712;2022-07-29T13:17:05;7.70;;;3.70;;
48574;SDS011;34352;51.084;3.712;2022-07-29T13:19:35;5.75;;;3.35;;
48574;SDS011;34352;51.084;3.712;2022-07-29T13:22:06;6.10;;;3.30;;
48574;SDS011;34352;51.084;3.712;2022-07-29T13:24:33;6.80;;;3.42;;
48574;SDS011;34352;51.084;3.712;2022-07-29T13:27:10;8.75;;;3.70;;
48574;SDS011;34352;51.084;3.712;2022-07-29T13:29:36;4.75;;;2.97;;
48574;SDS011;34352;51.084;3.712;2022-07-29T13:32:05;7.45;;;2.70;;
48574;SDS011;34352;51.084;3.712;2022-07-29T13:34:30;9.07;;;2.65;;
48574;SDS011;34352;51.084;3.712;2022-07-29T13:36:57;5.05;;;2.97;;
48574;SDS011;34352;51.084;3.712;2022-07-29T13:39:23;7.25;;;2.85;;
48574;SDS011;34352;51.084;3.712;2022-07-29T13:41:48;6.00;;;2.90;;
48574;SDS011;34352;51.084;3.712;2022-07-29T13:44:14;3.72;;;2.83;;
48574;SDS011;34352;51.084;3.712;2022-07-29T13:46:40;6.78;;;2.70;;
48574;SDS011;34352;51.084;3.712;2022-07-29T13:49:05;7.80;;;3.33;;
48574;SDS011;34352;51.084;3.712;2022-07-29T13:51:31;6.72;;;2.72;;
48574;SDS011;34352;51.084;3.712;2022-07-29T13:53:57;6.03;;;3.13;;
48574;SDS011;34352;51.084;3.712;2022-07-29T13:56:23;3.50;;;2.53;;
48574;SDS011;34352;51.084;3.712;2022-07-29T13:58:48;7.00;;;3.00;;
48574;SDS011;34352;51.084;3.712;2022-07-29T14:01:14;4.80;;;2.38;;
48574;SDS011;34352;51.084;3.712;2022-07-29T14:03:40;4.28;;;2.42;;
48574;SDS011;34352;51.084;3.712;2022-07-29T14:06:09;7.15;;;2.90;;
48574;SDS011;34352;51.084;3.712;2022-07-29T14:08:35;9.50;;;2.80;;
48574;SDS011;34352;51.084;3.712;2022-07-29T14:11:02;5.45;;;2.90;;
48574;SDS011;34352;51.084;3.712;2022-07-29T14:13:28;4.13;;;2.83;;
48574;SDS011;34352;51.084;3.712;2022-07-29T14:15:53;6.40;;;2.22;;
48574;SDS011;34352;51.084;3.712;2022-07-29T14:18:19;3.97;;;2.40;;
48574;SDS011;34352;51.084;3.712;2022-07-29T14:20:45;4.60;;;2.55;;
48574;SDS011;34352;51.084;3.712;2022-07-29T14:23:10;4.68;;;2.33;;
48574;SDS011;34352;51.084;3.712;2022-07-29T14:25:36;6.45;;;2.53;;
48574;SDS011;34352;51.084;3.712;2022-07-29T14:28:02;5.82;;;2.67;;
48574;SDS011;34352;51.084;3.712;2022-07-29T14:30:27;6.13;;;2.53;;
48574;SDS011;34352;51.084;3.712;2022-07-29T14:32:53;6.90;;;2.75;;
48574;SDS011;34352;51.084;3.712;2022-07-29T14:35:18;8.48;;;2.40;;
48574;SDS011;34352;51.084;3.712;2022-07-29T14:37:44;6.80;;;2.90;;
48574;SDS011;34352;51.084;3.712;2022-07-29T14:40:10;3.78;;;2.40;;
48574;SDS011;34352;51.084;3.712;2022-07-29T14:42:36;6.88;;;2.75;;
48574;SDS011;34352;51.084;3.712;2022-07-29T14:45:04;8.15;;;2.72;;
48574;SDS011;34352;51.084;3.712;2022-07-29T14:47:30;5.15;;;2.83;;
48574;SDS011;34352;51.084;3.712;2022-07-29T14:49:56;3.28;;;2.58;;
48574;SDS011;34352;51.084;3.712;2022-07-29T14:52:22;11.07;;;2.92;;
48574;SDS011;34352;51.084;3.712;2022-07-29T14:54:47;11.50;;;3.22;;
48574;SDS011;34352;51.084;3.712;2022-07-29T14:57:13;4.22;;;2.70;;
48574;SDS011;34352;51.084;3.712;2022-07-29T14:59:38;6.45;;;2.60;;
48574;SDS011;34352;51.084;3.712;2022-07-29T15:02:04;4.95;;;2.85;;
48574;SDS011;34352;51.084;3.712;2022-07-29T15:04:30;6.30;;;2.95;;
48574;SDS011;34352;51.084;3.712;2022-07-29T15:06:55;4.30;;;2.60;;
48574;SDS011;34352;51.084;3.712;2022-07-29T15:09:21;7.75;;;2.83;;
48574;SDS011;34352;51.084;3.712;2022-07-29T15:11:47;7.10;;;2.55;;
48574;SDS011;34352;51.084;3.712;2022-07-29T15:14:12;5.18;;;2.28;;
48574;SDS011;34352;51.084;3.712;2022-07-29T15:16:38;5.05;;;2.30;;
48574;SDS011;34352;51.084;3.712;2022-07-29T15:19:05;5.93;;;2.53;;
48574;SDS011;34352;51.084;3.712;2022-07-29T15:21:31;5.43;;;2.85;;
48574;SDS011;34352;51.084;3.712;2022-07-29T15:23:57;3.58;;;2.45;;
48574;SDS011;34352;51.084;3.712;2022-07-29T15:26:22;4.95;;;2.60;;
48574;SDS011;34352;51.084;3.712;2022-07-29T15:28:48;5.63;;;2.80;;
48574;SDS011;34352;51.084;3.712;2022-07-29T15:31:17;5.80;;;2.30;;
48574;SDS011;34352;51.084;3.712;2022-07-29T15:33:44;3.95;;;2.30;;
48574;SDS011;34352;51.084;3.712;2022-07-29T15:36:11;4.55;;;2.55;;
48574;SDS011;34352;51.084;3.712;2022-07-29T15:38:37;5.22;;;2.40;;
48574;SDS011;34352;51.084;3.712;2022-07-29T15:41:05;4.18;;;2.47;;
48574;SDS011;34352;51.084;3.712;2022-07-29T15:43:31;5.93;;;2.70;;
48574;SDS011;34352;51.084;3.712;2022-07-29T15:45:59;6.38;;;2.92;;
48574;SDS011;34352;51.084;3.712;2022-07-29T15:48:44;5.82;;;2.30;;
48574;SDS011;34352;51.084;3.712;2022-07-29T15:51:09;5.43;;;2.90;;
48574;SDS011;34352;51.084;3.712;2022-07-29T15:53:35;6.38;;;2.70;;
48574;SDS011;34352;51.084;3.712;2022-07-29T15:56:02;16.10;;;2.63;;